createdAt,value
2019-04-11T00:00:31.381Z,14.70
2019-04-11T00:03:03.003Z,13.83
2019-04-11T00:05:35.046Z,14.23
2019-04-11T00:08:05.968Z,13.70
2019-04-11T00:10:37.512Z,14.07
2019-04-11T00:13:17.324Z,13.40
2019-04-11T00:15:40.496Z,13.87
2019-04-11T00:18:11.266Z,14.43
2019-04-11T00:20:42.420Z,12.90
2019-04-11T00:23:14.137Z,13.03
2019-04-11T00:25:44.920Z,13.50
2019-04-11T00:28:15.653Z,13.23
2019-04-11T00:30:46.271Z,13.50
2019-04-11T00:33:18.123Z,13.63
2019-04-11T00:35:48.822Z,11.93
2019-04-11T00:38:19.392Z,13.70
2019-04-11T00:40:51.159Z,14.63
2019-04-11T00:43:30.575Z,12.67
2019-04-11T00:45:54.131Z,13.73
2019-04-11T00:48:25.842Z,13.00
2019-04-11T00:50:56.557Z,14.13
2019-04-11T00:53:27.797Z,13.10
2019-04-11T00:55:58.512Z,12.97
2019-04-11T00:58:29.761Z,13.23
2019-04-11T01:01:01.658Z,13.57
2019-04-11T01:03:33.892Z,13.03
2019-04-11T01:06:05.722Z,12.40
2019-04-11T01:08:36.393Z,12.83
2019-04-11T01:11:07.811Z,13.53
2019-04-11T01:13:44.591Z,12.60
2019-04-11T01:16:28.341Z,15.10
2019-04-11T01:18:58.941Z,13.60
2019-04-11T01:21:30.653Z,12.13
2019-04-11T01:24:01.733Z,13.60
2019-04-11T01:26:33.002Z,13.70
2019-04-11T01:29:05.588Z,12.47
2019-04-11T01:31:37.884Z,11.97
2019-04-11T01:34:08.644Z,12.03
2019-04-11T01:36:39.412Z,12.73
2019-04-11T01:39:38.321Z,13.03
2019-04-11T01:42:09.145Z,12.50
2019-04-11T01:44:41.007Z,13.20
2019-04-11T01:47:14.988Z,12.67
2019-04-11T01:49:46.212Z,12.60
2019-04-11T01:52:16.779Z,13.10
2019-04-11T01:54:47.983Z,13.93
2019-04-11T01:57:18.648Z,13.50
2019-04-11T01:59:51.283Z,13.10
2019-04-11T02:02:42.266Z,13.43
2019-04-11T02:05:25.181Z,13.97
2019-04-11T02:07:55.849Z,12.37
2019-04-11T02:10:26.592Z,12.10
2019-04-11T02:12:57.442Z,12.10
2019-04-11T02:15:28.338Z,12.10
2019-04-11T02:17:59.269Z,12.60
2019-04-11T02:20:29.928Z,12.40
2019-04-11T02:23:32.024Z,14.73
2019-04-11T02:26:07.620Z,10.93
2019-04-11T02:28:39.025Z,13.23
2019-04-11T02:31:11.584Z,12.77
2019-04-11T02:33:43.201Z,12.40
2019-04-11T02:36:13.930Z,12.60
2019-04-11T02:38:46.789Z,12.80
2019-04-11T02:41:17.111Z,12.97
2019-04-11T02:43:49.021Z,12.67
2019-04-11T02:46:32.352Z,12.70
2019-04-11T02:48:54.369Z,11.87
2019-04-11T02:51:26.839Z,12.50
2019-04-11T02:53:58.853Z,13.00
2019-04-11T02:56:31.162Z,12.73
2019-04-11T02:59:02.376Z,12.60
2019-04-11T03:01:36.088Z,13.10
2019-04-11T03:04:07.428Z,13.70
2019-04-11T03:06:39.731Z,12.73
2019-04-11T03:09:10.970Z,13.67
2019-04-11T03:11:43.017Z,12.67
2019-04-11T03:14:14.279Z,12.60
2019-04-11T03:16:56.409Z,14.50
2019-04-11T03:19:33.782Z,12.73
2019-04-11T03:21:52.191Z,13.70
2019-04-11T03:24:24.348Z,12.80
2019-04-11T03:26:57.981Z,13.50
2019-04-11T03:29:28.919Z,13.60
2019-04-11T03:32:37.066Z,13.63
2019-04-11T03:37:27.208Z,18.17
2019-04-11T03:39:59.223Z,16.20
2019-04-11T03:42:29.601Z,13.20
2019-04-11T03:44:47.779Z,15.60
2019-04-11T03:47:27.753Z,15.27
2019-04-11T03:49:53.251Z,13.63
2019-04-11T03:52:20.218Z,13.97
2019-04-11T03:54:51.325Z,11.60
2019-04-11T03:57:23.515Z,13.60
2019-04-11T03:59:54.505Z,14.00
2019-04-11T04:02:25.998Z,13.30
2019-04-11T04:04:57.222Z,13.90
2019-04-11T04:07:27.891Z,13.90
2019-04-11T04:10:00.366Z,14.77
2019-04-11T04:12:31.433Z,14.40
2019-04-11T04:15:39.263Z,14.13
2019-04-11T04:18:25.077Z,14.30
2019-04-11T04:21:09.160Z,17.70
2019-04-11T04:23:43.358Z,39.13
2019-04-11T04:26:16.712Z,28.63
2019-04-11T04:28:47.680Z,39.63
2019-04-11T04:31:18.953Z,39.90
2019-04-11T04:33:51.261Z,17.53
2019-04-11T04:36:22.551Z,20.73
2019-04-11T04:38:54.662Z,30.53
2019-04-11T04:41:37.508Z,19.97
2019-04-11T04:44:01.678Z,17.87
2019-04-11T04:46:47.025Z,16.30
2019-04-11T04:49:04.832Z,14.80
2019-04-11T04:51:37.251Z,14.33
2019-04-11T04:54:10.076Z,15.23
2019-04-11T04:56:41.936Z,16.10
2019-04-11T04:59:14.614Z,15.23
2019-04-11T05:01:46.378Z,17.20
2019-04-11T05:04:19.013Z,15.97
2019-04-11T05:06:56.553Z,15.20
2019-04-11T05:09:27.291Z,14.97
2019-04-11T05:11:57.864Z,15.20
2019-04-11T05:14:29.554Z,14.03
2019-04-11T05:17:00.488Z,15.43
2019-04-11T05:19:31.982Z,14.27
2019-04-11T05:22:02.593Z,16.80
2019-04-11T05:24:33.101Z,15.27
2019-04-11T05:27:04.139Z,15.20
2019-04-11T05:29:35.597Z,15.07
2019-04-11T05:32:07.274Z,15.60
2019-04-11T05:34:37.901Z,15.90
2019-04-11T05:37:09.002Z,14.90
2019-04-11T05:39:39.839Z,16.90
2019-04-11T05:42:15.557Z,14.90
2019-04-11T05:44:43.634Z,14.40
2019-04-11T05:47:18.180Z,14.80
2019-04-11T05:49:54.728Z,15.10
2019-04-11T05:52:27.396Z,14.23
2019-04-11T05:55:00.999Z,17.30
2019-04-11T05:57:36.755Z,15.57
2019-04-11T06:00:05.553Z,16.80
2019-04-11T06:02:49.497Z,14.70
2019-04-11T06:05:36.089Z,14.53
2019-04-11T06:08:12.239Z,15.20
2019-04-11T06:11:06.257Z,15.53
2019-04-11T06:13:42.862Z,14.43
2019-04-11T06:16:14.635Z,15.30
2019-04-11T06:19:04.029Z,14.43
2019-04-11T06:21:46.342Z,13.40
2019-04-11T06:24:36.431Z,13.73
2019-04-11T06:27:19.931Z,12.93
2019-04-11T06:30:09.676Z,14.13
2019-04-11T06:32:58.371Z,13.83
2019-04-11T06:36:00.440Z,14.53
2019-04-11T06:38:56.742Z,14.90
2019-04-11T06:41:50.622Z,13.30
2019-04-11T06:44:50.144Z,13.70
2019-04-11T06:47:43.139Z,12.97
2019-04-11T06:50:22.962Z,14.00
2019-04-11T06:52:54.642Z,12.73
2019-04-11T06:55:50.961Z,13.50
2019-04-11T06:58:25.909Z,13.40
2019-04-11T07:01:06.827Z,14.67
2019-04-11T07:03:42.924Z,14.33
2019-04-11T07:06:25.656Z,13.73
2019-04-11T07:09:13.078Z,14.40
2019-04-11T07:11:57.063Z,14.93
2019-04-11T07:14:33.577Z,14.27
2019-04-11T07:17:29.738Z,15.13
2019-04-11T07:20:18.658Z,13.43
2019-04-11T07:23:07.883Z,14.77
2019-04-11T07:25:58.107Z,13.80
2019-04-11T07:28:47.990Z,15.30
2019-04-11T07:31:38.004Z,15.20
2019-04-11T07:34:31.470Z,13.97
2019-04-11T07:37:19.046Z,14.50
2019-04-11T07:40:24.317Z,13.60
2019-04-11T07:43:20.390Z,13.73
2019-04-11T07:46:26.907Z,14.53
2019-04-11T07:49:08.428Z,14.33
2019-04-11T07:51:46.803Z,15.20
2019-04-11T07:54:20.299Z,13.50
2019-04-11T07:57:12.974Z,13.40
2019-04-11T08:00:01.345Z,15.47
2019-04-11T08:03:08.129Z,15.30
2019-04-11T08:05:58.740Z,14.37
2019-04-11T08:08:47.364Z,15.60
2019-04-11T08:11:28.605Z,15.53
2019-04-11T08:14:30.789Z,14.90
2019-04-11T08:17:11.541Z,15.20
2019-04-11T08:19:59.755Z,15.60
2019-04-11T08:22:35.039Z,15.40
2019-04-11T08:25:25.096Z,14.40
2019-04-11T08:28:01.318Z,15.10
2019-04-11T08:30:52.154Z,13.90
2019-04-11T08:33:23.023Z,15.27
2019-04-11T08:36:22.088Z,14.93
2019-04-11T08:38:53.066Z,15.30
2019-04-11T08:41:35.752Z,16.60
2019-04-11T08:44:27.939Z,16.47
2019-04-11T08:47:04.422Z,16.27
2019-04-11T08:49:46.428Z,15.63
2019-04-11T08:52:34.740Z,15.63
2019-04-11T08:55:19.229Z,15.30
2019-04-11T08:58:00.566Z,16.13
2019-04-11T09:00:40.211Z,14.10
2019-04-11T09:03:44.093Z,15.57
2019-04-11T09:06:18.993Z,15.33
2019-04-11T09:09:09.166Z,15.07
2019-04-11T09:11:42.320Z,21.03
2019-04-11T09:14:44.574Z,15.07
2019-04-11T09:17:32.913Z,16.00
2019-04-11T09:20:21.556Z,16.03
2019-04-11T09:22:55.495Z,15.20
2019-04-11T09:25:44.002Z,15.30
2019-04-11T09:28:39.902Z,17.20
2019-04-11T09:31:42.125Z,15.20
2019-04-11T09:34:39.791Z,15.73
2019-04-11T09:37:29.550Z,17.37
2019-04-11T09:40:12.513Z,17.03
2019-04-11T09:42:53.460Z,17.43
2019-04-11T09:45:54.284Z,17.07
2019-04-11T09:48:33.695Z,16.33
2019-04-11T09:51:40.316Z,16.30
2019-04-11T09:54:18.039Z,17.50
2019-04-11T09:57:06.367Z,16.87
2019-04-11T09:59:45.623Z,17.40
2019-04-11T10:02:38.057Z,16.80
2019-04-11T10:05:09.614Z,17.17
2019-04-11T10:07:58.001Z,16.03
2019-04-11T10:10:40.286Z,16.63
2019-04-11T10:13:26.966Z,17.53
2019-04-11T10:16:15.910Z,18.57
2019-04-11T10:18:59.914Z,16.57
2019-04-11T10:21:31.154Z,19.37
2019-04-11T10:24:22.355Z,19.60
2019-04-11T10:27:00.446Z,19.37
2019-04-11T10:29:50.425Z,17.73
2019-04-11T10:32:23.903Z,17.70
2019-04-11T10:35:20.075Z,18.90
2019-04-11T10:37:50.357Z,17.07
2019-04-11T10:40:39.852Z,18.13
2019-04-11T10:43:11.852Z,20.07
2019-04-11T10:46:02.765Z,18.20
2019-04-11T10:48:46.716Z,18.40
2019-04-11T10:51:29.566Z,18.43
2019-04-11T10:54:02.861Z,18.77
2019-04-11T10:56:52.121Z,18.97
2019-04-11T10:59:26.748Z,19.47
2019-04-11T11:02:37.697Z,18.90
2019-04-11T11:05:09.771Z,20.93
2019-04-11T11:07:42.500Z,19.77
2019-04-11T11:10:17.443Z,19.30
2019-04-11T11:13:16.144Z,19.20
2019-04-11T11:15:51.643Z,19.57
2019-04-11T11:19:22.240Z,19.87
2019-04-11T11:21:32.141Z,19.40
2019-04-11T11:24:38.229Z,20.43
2019-04-11T11:27:07.356Z,19.83
2019-04-11T11:29:47.387Z,19.83
2019-04-11T11:32:25.267Z,20.77
2019-04-11T11:35:15.132Z,20.80
2019-04-11T11:37:59.727Z,20.17
2019-04-11T11:40:48.038Z,20.90
2019-04-11T11:43:21.364Z,20.73
2019-04-11T11:45:59.006Z,20.20
2019-04-11T11:48:36.903Z,19.77
2019-04-11T11:51:12.984Z,20.03
2019-04-11T11:54:05.176Z,20.57
2019-04-11T11:56:38.100Z,20.17
2019-04-11T11:59:27.392Z,19.23
2019-04-11T12:02:02.329Z,20.43
2019-04-11T12:04:51.920Z,20.20
2019-04-11T12:07:26.168Z,22.07
2019-04-11T12:10:15.255Z,20.80
2019-04-11T12:12:53.944Z,20.63
2019-04-11T12:15:43.408Z,20.80
2019-04-11T12:18:28.615Z,22.27
2019-04-11T12:21:03.089Z,20.20
2019-04-11T12:24:00.633Z,21.17
2019-04-11T12:26:27.929Z,20.63
2019-04-11T12:29:32.281Z,20.77
2019-04-11T12:32:06.253Z,20.50
2019-04-11T12:34:45.189Z,20.40
2019-04-11T12:37:25.308Z,20.43
2019-04-11T12:40:13.681Z,21.37
2019-04-11T12:42:44.245Z,20.80
2019-04-11T12:45:52.117Z,19.90
2019-04-11T12:48:25.522Z,20.47
2019-04-11T12:51:17.996Z,20.63
2019-04-11T12:53:48.646Z,22.27
2019-04-11T12:56:41.343Z,21.10
2019-04-11T12:59:18.726Z,21.83
2019-04-11T13:02:07.117Z,20.70
2019-04-11T13:04:39.465Z,19.63
2019-04-11T13:07:29.106Z,19.63
2019-04-11T13:10:06.402Z,22.17
2019-04-11T13:13:02.100Z,20.50
2019-04-11T13:15:35.700Z,23.17
2019-04-11T13:18:23.897Z,23.60
2019-04-11T13:20:58.281Z,20.93
2019-04-11T13:24:01.477Z,21.80
2019-04-11T13:27:09.457Z,21.20
2019-04-11T13:30:05.426Z,21.30
2019-04-11T13:32:41.447Z,20.67
2019-04-11T13:35:37.088Z,21.20
2019-04-11T13:38:13.945Z,20.10
2019-04-11T13:41:03.591Z,20.87
2019-04-11T13:43:50.036Z,21.17
2019-04-11T13:46:48.893Z,20.40
2019-04-11T13:49:37.461Z,21.13
2019-04-11T13:52:30.168Z,21.30
2019-04-11T13:55:08.571Z,19.73
2019-04-11T13:57:58.259Z,22.47
2019-04-11T14:00:59.842Z,22.03
2019-04-11T14:03:49.522Z,20.93
2019-04-11T14:06:24.265Z,21.83
2019-04-11T14:09:23.221Z,21.73
2019-04-11T14:12:04.880Z,21.43
2019-04-11T14:14:38.692Z,21.63
2019-04-11T14:17:26.993Z,20.90
2019-04-11T14:20:28.254Z,22.10
2019-04-11T14:23:13.626Z,21.63
2019-04-11T14:26:02.456Z,21.07
2019-04-11T14:28:39.865Z,19.90
2019-04-11T14:31:35.467Z,19.13
2019-04-11T14:34:23.489Z,19.67
2019-04-11T14:37:05.844Z,20.37
2019-04-11T14:39:39.035Z,20.10
2019-04-11T14:42:31.656Z,19.20
2019-04-11T14:45:05.698Z,20.60
2019-04-11T14:47:42.609Z,25.93
2019-04-11T14:50:13.593Z,18.47
2019-04-11T14:52:52.309Z,19.10
2019-04-11T14:55:24.188Z,19.67
2019-04-11T14:58:09.901Z,19.90
2019-04-11T15:00:41.836Z,19.87
2019-04-11T15:03:23.121Z,19.47
2019-04-11T15:06:07.990Z,19.60
2019-04-11T15:09:06.805Z,17.67
2019-04-11T15:11:59.056Z,19.47
2019-04-11T15:14:54.809Z,19.07
2019-04-11T15:17:30.789Z,19.87
2019-04-11T15:20:19.933Z,19.07
2019-04-11T15:23:06.741Z,18.47
2019-04-11T15:26:09.889Z,21.30
2019-04-11T15:28:47.121Z,21.03
2019-04-11T15:31:25.155Z,18.90
2019-04-11T15:34:08.137Z,18.17
2019-04-11T15:36:39.900Z,18.17
2019-04-11T15:39:29.214Z,18.57
2019-04-11T15:42:02.492Z,18.27
2019-04-11T15:44:49.864Z,18.13
2019-04-11T15:47:21.049Z,17.53
2019-04-11T15:50:10.702Z,19.73
2019-04-11T15:52:46.477Z,19.40
2019-04-11T15:55:37.504Z,19.07
2019-04-11T15:58:08.428Z,20.20
2019-04-11T16:01:04.058Z,19.10
2019-04-11T16:03:35.600Z,16.70
2019-04-11T16:06:24.125Z,19.10
2019-04-11T16:08:57.623Z,17.10
2019-04-11T16:11:53.373Z,18.50
2019-04-11T16:14:32.265Z,20.07
2019-04-11T16:17:36.964Z,19.93
2019-04-11T16:20:27.826Z,19.27
2019-04-11T16:23:12.116Z,19.90
2019-04-11T16:25:45.816Z,20.60
2019-04-11T16:28:38.963Z,20.53
2019-04-11T16:31:11.713Z,19.27
2019-04-11T16:33:51.344Z,19.10
2019-04-11T16:36:39.886Z,18.73
2019-04-11T16:39:29.541Z,17.60
2019-04-11T16:42:02.267Z,18.20
2019-04-11T16:44:54.906Z,19.97
2019-04-11T16:47:40.377Z,19.07
2019-04-11T16:50:11.018Z,19.40
2019-04-11T16:52:41.573Z,19.30
2019-04-11T16:55:12.123Z,19.40
2019-04-11T16:57:44.236Z,18.33
2019-04-11T17:00:15.408Z,17.07
2019-04-11T17:02:46.025Z,19.73
2019-04-11T17:05:17.023Z,17.57
2019-04-11T17:08:06.683Z,17.03
2019-04-11T17:10:57.384Z,18.37
2019-04-11T17:13:28.933Z,19.90
2019-04-11T17:16:00.552Z,18.03
2019-04-11T17:18:34.034Z,17.57
2019-04-11T17:21:07.609Z,17.27
2019-04-11T17:23:35.887Z,19.13
2019-04-11T17:26:07.074Z,17.67
2019-04-11T17:28:37.654Z,18.30
2019-04-11T17:31:08.252Z,18.80
2019-04-11T17:33:39.019Z,17.87
2019-04-11T17:36:09.689Z,18.37
2019-04-11T17:38:40.910Z,19.10
2019-04-11T17:41:12.145Z,17.97
2019-04-11T17:43:46.685Z,18.10
2019-04-11T17:46:15.141Z,19.10
2019-04-11T17:48:47.057Z,17.87
2019-04-11T17:51:19.066Z,17.07
2019-04-11T17:53:49.834Z,17.07
2019-04-11T17:56:24.646Z,15.67
2019-04-11T17:58:53.287Z,16.77
2019-04-11T18:01:23.938Z,18.50
2019-04-11T18:03:54.600Z,17.93
2019-04-11T18:06:25.297Z,17.50
2019-04-11T18:08:56.043Z,18.50
2019-04-11T18:11:27.133Z,18.23
2019-04-11T18:14:00.760Z,17.70
2019-04-11T18:16:31.694Z,19.07
2019-04-11T18:19:05.796Z,18.40
2019-04-11T18:21:37.164Z,17.80
2019-04-11T18:24:09.020Z,16.63
2019-04-11T18:26:39.624Z,17.67
2019-04-11T18:29:10.301Z,16.40
2019-04-11T18:31:40.880Z,17.47
2019-04-11T18:34:12.516Z,17.10
2019-04-11T18:36:43.152Z,16.20
2019-04-11T18:39:13.818Z,17.70
2019-04-11T18:41:44.597Z,16.70
2019-04-11T18:44:18.008Z,16.30
2019-04-11T18:46:47.684Z,17.00
2019-04-11T18:49:19.471Z,16.40
2019-04-11T18:51:50.858Z,17.20
2019-04-11T18:54:22.881Z,19.47
2019-04-11T18:56:53.408Z,17.23
2019-04-11T18:59:25.138Z,16.13
2019-04-11T19:01:55.749Z,15.43
2019-04-11T19:04:32.307Z,14.70
2019-04-11T19:06:58.804Z,15.73
2019-04-11T19:09:29.540Z,15.17
2019-04-11T19:12:00.356Z,16.33
2019-04-11T19:14:31.037Z,15.67
2019-04-11T19:17:01.741Z,15.00
2019-04-11T19:19:32.386Z,16.70
2019-04-11T19:22:03.058Z,16.60
2019-04-11T19:24:35.612Z,15.13
2019-04-11T19:27:06.487Z,14.80
2019-04-11T19:29:39.048Z,15.40
2019-04-11T19:32:09.687Z,15.03
2019-04-11T19:34:40.362Z,15.97
2019-04-11T19:37:12.021Z,14.40
2019-04-11T19:39:45.442Z,14.13
2019-04-11T19:42:18.617Z,18.90
2019-04-11T19:44:49.715Z,17.13
2019-04-11T19:47:21.677Z,15.30
2019-04-11T19:49:52.582Z,16.00
2019-04-11T19:52:23.180Z,14.30
2019-04-11T19:54:55.505Z,13.67
2019-04-11T19:57:26.041Z,14.27
2019-04-11T19:59:56.664Z,12.20
2019-04-11T20:02:27.314Z,13.77
2019-04-11T20:04:58.415Z,14.37
2019-04-11T20:07:28.981Z,13.63
2019-04-11T20:10:00.810Z,15.97
2019-04-11T20:12:32.177Z,18.80
2019-04-11T20:15:04.990Z,18.80
2019-04-11T20:17:44.034Z,17.67
2019-04-11T20:20:08.874Z,17.07
2019-04-11T20:22:39.978Z,19.30
2019-04-11T20:25:11.134Z,18.63
2019-04-11T20:27:42.799Z,18.50
2019-04-11T20:30:13.550Z,17.90
2019-04-11T20:32:44.169Z,17.77
2019-04-11T20:35:14.889Z,18.97
2019-04-11T20:37:45.423Z,16.97
2019-04-11T20:40:18.144Z,15.57
2019-04-11T20:42:48.270Z,14.57
2019-04-11T20:45:19.045Z,13.93
2019-04-11T20:47:49.827Z,14.50
2019-04-11T20:50:20.467Z,13.83
2019-04-11T20:52:51.070Z,15.30
2019-04-11T20:55:21.697Z,16.03
2019-04-11T20:57:52.226Z,15.07
2019-04-11T21:00:22.940Z,14.73
2019-04-11T21:02:53.541Z,14.30
2019-04-11T21:05:24.108Z,14.40
2019-04-11T21:07:54.732Z,14.63
2019-04-11T21:10:25.345Z,13.70
2019-04-11T21:12:55.876Z,14.17
2019-04-11T21:15:26.465Z,13.63
2019-04-11T21:17:57.011Z,14.80
2019-04-11T21:20:27.691Z,14.10
2019-04-11T21:22:58.308Z,14.77
2019-04-11T21:25:29.131Z,13.87
2019-04-11T21:27:59.991Z,14.17
2019-04-11T21:30:31.212Z,14.20
2019-04-11T21:33:03.754Z,14.27
2019-04-11T21:35:34.108Z,14.03
2019-04-11T21:38:04.717Z,13.10
2019-04-11T21:40:36.552Z,15.30
2019-04-11T21:43:07.330Z,14.23
2019-04-11T21:45:37.925Z,13.57
2019-04-11T21:48:09.423Z,13.60
2019-04-11T21:50:40.686Z,14.60
2019-04-11T21:53:13.862Z,13.97
2019-04-11T21:55:47.398Z,15.23
2019-04-11T21:58:19.238Z,14.53
2019-04-11T22:00:54.374Z,13.47
2019-04-11T22:03:25.573Z,14.30
2019-04-11T22:05:59.607Z,13.60
2019-04-11T22:08:28.461Z,14.00
2019-04-11T22:10:59.046Z,14.07
2019-04-11T22:13:29.661Z,14.17
2019-04-11T22:16:00.286Z,13.77
2019-04-11T22:18:30.829Z,14.00
2019-04-11T22:21:01.408Z,13.43
2019-04-11T22:23:32.021Z,13.43
2019-04-11T22:26:02.533Z,12.63
2019-04-11T22:28:33.087Z,13.27
2019-04-11T22:31:03.685Z,13.80
2019-04-11T22:33:48.268Z,13.33
2019-04-11T22:36:18.801Z,14.50
2019-04-11T22:38:49.349Z,14.93
2019-04-11T22:41:19.944Z,14.23
2019-04-11T22:43:50.488Z,15.10
2019-04-11T22:46:21.224Z,13.87
2019-04-11T22:48:51.760Z,13.57
2019-04-11T22:51:22.281Z,14.30
2019-04-11T22:54:00.257Z,14.20
2019-04-11T22:56:25.085Z,13.90
2019-04-11T22:58:55.625Z,13.77
2019-04-11T23:01:26.251Z,13.63
2019-04-11T23:09:48.581Z,15.00
2019-04-11T23:12:17.500Z,14.43
2019-04-11T23:14:48.112Z,14.30
2019-04-11T23:17:18.694Z,14.20
2019-04-11T23:19:49.310Z,13.90
2019-04-11T23:22:19.840Z,14.17
2019-04-11T23:24:50.380Z,14.33
2019-04-11T23:27:21.289Z,14.40
2019-04-11T23:29:52.225Z,14.27
2019-04-11T23:32:22.896Z,14.80
2019-04-11T23:34:53.436Z,15.70
2019-04-11T23:37:24.022Z,14.03
2019-04-11T23:39:54.618Z,14.80
2019-04-11T23:42:25.228Z,15.13
2019-04-11T23:44:55.757Z,15.20
2019-04-11T23:47:26.269Z,15.30
2019-04-11T23:49:56.884Z,14.40
2019-04-11T23:52:27.515Z,15.23
2019-04-11T23:54:58.232Z,14.90
2019-04-11T23:57:31.304Z,14.97
